sensor_id;sensor_type;location;lat;lon;timestamp;P1;durP1;ratioP1;P2;durP2;ratioP2
51588;SDS011;37671;53.258;6.460;2022-08-03T05:02:03;9.30;;;2.40;;
51588;SDS011;37671;53.258;6.460;2022-08-03T05:04:29;12.02;;;2.72;;
51588;SDS011;37671;53.258;6.460;2022-08-03T05:06:55;5.95;;;1.88;;
51588;SDS011;37671;53.258;6.460;2022-08-03T05:09:20;11.70;;;2.85;;
51588;SDS011;37671;53.258;6.460;2022-08-03T05:11:46;8.32;;;2.17;;
51588;SDS011;37671;53.258;6.460;2022-08-03T05:14:12;11.07;;;2.88;;
51588;SDS011;37671;53.258;6.460;2022-08-03T05:16:38;8.18;;;2.42;;
51588;SDS011;37671;53.258;6.460;2022-08-03T05:19:03;9.48;;;3.03;;
51588;SDS011;37671;53.258;6.460;2022-08-03T05:21:29;7.80;;;2.08;;
51588;SDS011;37671;53.258;6.460;2022-08-03T05:23:54;6.80;;;2.05;;
51588;SDS011;37671;53.258;6.460;2022-08-03T05:26:20;12.93;;;2.90;;
51588;SDS011;37671;53.258;6.460;2022-08-03T05:28:45;11.02;;;2.33;;
51588;SDS011;37671;53.258;6.460;2022-08-03T05:31:11;9.90;;;2.47;;
51588;SDS011;37671;53.258;6.460;2022-08-03T05:33:37;11.90;;;2.75;;
51588;SDS011;37671;53.258;6.460;2022-08-03T05:36:03;8.50;;;2.33;;
51588;SDS011;37671;53.258;6.460;2022-08-03T05:38:30;6.47;;;2.25;;
51588;SDS011;37671;53.258;6.460;2022-08-03T05:40:56;10.98;;;2.58;;
51588;SDS011;37671;53.258;6.460;2022-08-03T05:43:22;11.73;;;2.20;;
51588;SDS011;37671;53.258;6.460;2022-08-03T05:45:48;7.88;;;1.83;;
51588;SDS011;37671;53.258;6.460;2022-08-03T05:48:13;14.43;;;2.15;;
51588;SDS011;37671;53.258;6.460;2022-08-03T05:50:39;10.95;;;2.28;;
51588;SDS011;37671;53.258;6.460;2022-08-03T05:53:05;13.63;;;1.98;;
51588;SDS011;37671;53.258;6.460;2022-08-03T05:55:30;7.78;;;1.88;;
51588;SDS011;37671;53.258;6.460;2022-08-03T05:57:56;8.90;;;2.47;;
51588;SDS011;37671;53.258;6.460;2022-08-03T06:00:22;8.00;;;2.22;;
51588;SDS011;37671;53.258;6.460;2022-08-03T06:02:48;8.10;;;1.88;;
51588;SDS011;37671;53.258;6.460;2022-08-03T06:05:13;10.82;;;2.40;;
51588;SDS011;37671;53.258;6.460;2022-08-03T06:07:39;8.90;;;2.10;;
51588;SDS011;37671;53.258;6.460;2022-08-03T06:10:05;10.55;;;2.22;;
51588;SDS011;37671;53.258;6.460;2022-08-03T06:12:31;9.85;;;2.83;;
51588;SDS011;37671;53.258;6.460;2022-08-03T06:15:00;8.77;;;2.13;;
51588;SDS011;37671;53.258;6.460;2022-08-03T06:17:26;10.70;;;2.08;;
51588;SDS011;37671;53.258;6.460;2022-08-03T06:19:52;13.25;;;2.50;;
51588;SDS011;37671;53.258;6.460;2022-08-03T06:22:18;8.18;;;2.05;;
51588;SDS011;37671;53.258;6.460;2022-08-03T06:24:44;10.77;;;2.03;;
51588;SDS011;37671;53.258;6.460;2022-08-03T06:27:09;11.35;;;2.35;;
51588;SDS011;37671;53.258;6.460;2022-08-03T06:29:36;11.52;;;2.15;;
51588;SDS011;37671;53.258;6.460;2022-08-03T06:32:02;8.43;;;2.03;;
51588;SDS011;37671;53.258;6.460;2022-08-03T06:34:27;11.52;;;2.55;;
51588;SDS011;37671;53.258;6.460;2022-08-03T06:36:53;12.45;;;2.35;;
51588;SDS011;37671;53.258;6.460;2022-08-03T06:39:19;9.43;;;2.30;;
51588;SDS011;37671;53.258;6.460;2022-08-03T06:41:46;11.43;;;2.75;;
51588;SDS011;37671;53.258;6.460;2022-08-03T06:44:11;8.20;;;2.33;;
51588;SDS011;37671;53.258;6.460;2022-08-03T06:46:37;8.27;;;2.00;;
51588;SDS011;37671;53.258;6.460;2022-08-03T06:49:03;12.25;;;2.30;;
51588;SDS011;37671;53.258;6.460;2022-08-03T06:51:29;9.32;;;2.20;;
51588;SDS011;37671;53.258;6.460;2022-08-03T06:53:55;8.75;;;2.08;;
51588;SDS011;37671;53.258;6.460;2022-08-03T06:56:20;10.65;;;2.17;;
51588;SDS011;37671;53.258;6.460;2022-08-03T06:58:46;12.73;;;2.47;;
51588;SDS011;37671;53.258;6.460;2022-08-03T07:01:12;13.57;;;2.55;;
51588;SDS011;37671;53.258;6.460;2022-08-03T07:03:38;15.02;;;2.80;;
51588;SDS011;37671;53.258;6.460;2022-08-03T07:06:04;14.90;;;2.85;;
51588;SDS011;37671;53.258;6.460;2022-08-03T07:08:30;14.88;;;2.30;;
51588;SDS011;37671;53.258;6.460;2022-08-03T07:10:56;9.85;;;2.47;;
51588;SDS011;37671;53.258;6.460;2022-08-03T07:13:22;9.90;;;2.70;;
51588;SDS011;37671;53.258;6.460;2022-08-03T07:15:47;11.48;;;2.50;;
51588;SDS011;37671;53.258;6.460;2022-08-03T07:18:13;10.68;;;2.20;;
51588;SDS011;37671;53.258;6.460;2022-08-03T07:20:38;8.07;;;2.20;;
51588;SDS011;37671;53.258;6.460;2022-08-03T07:23:04;10.98;;;2.15;;
51588;SDS011;37671;53.258;6.460;2022-08-03T07:25:30;11.20;;;2.67;;
51588;SDS011;37671;53.258;6.460;2022-08-03T07:27:56;13.23;;;2.20;;
51588;SDS011;37671;53.258;6.460;2022-08-03T07:30:22;13.77;;;2.78;;
51588;SDS011;37671;53.258;6.460;2022-08-03T07:32:47;11.32;;;2.30;;
51588;SDS011;37671;53.258;6.460;2022-08-03T07:35:13;9.98;;;2.35;;
51588;SDS011;37671;53.258;6.460;2022-08-03T07:37:39;10.30;;;2.10;;
51588;SDS011;37671;53.258;6.460;2022-08-03T07:40:04;10.07;;;2.53;;
51588;SDS011;37671;53.258;6.460;2022-08-03T07:42:30;12.30;;;2.55;;
51588;SDS011;37671;53.258;6.460;2022-08-03T07:44:56;13.30;;;2.60;;
51588;SDS011;37671;53.258;6.460;2022-08-03T07:47:23;10.82;;;2.33;;
51588;SDS011;37671;53.258;6.460;2022-08-03T07:49:53;11.77;;;2.35;;
51588;SDS011;37671;53.258;6.460;2022-08-03T07:52:19;12.20;;;2.40;;
51588;SDS011;37671;53.258;6.460;2022-08-03T07:55:07;9.05;;;2.38;;
51588;SDS011;37671;53.258;6.460;2022-08-03T07:57:34;9.60;;;2.35;;
51588;SDS011;37671;53.258;6.460;2022-08-03T07:59:59;9.50;;;2.22;;
51588;SDS011;37671;53.258;6.460;2022-08-03T08:02:25;17.38;;;3.33;;
51588;SDS011;37671;53.258;6.460;2022-08-03T08:04:51;11.10;;;2.20;;
51588;SDS011;37671;53.258;6.460;2022-08-03T08:07:17;10.57;;;2.38;;
51588;SDS011;37671;53.258;6.460;2022-08-03T08:09:42;14.60;;;2.60;;
51588;SDS011;37671;53.258;6.460;2022-08-03T08:12:08;14.07;;;2.65;;
51588;SDS011;37671;53.258;6.460;2022-08-03T08:14:36;8.25;;;2.03;;
51588;SDS011;37671;53.258;6.460;2022-08-03T08:17:03;13.27;;;2.72;;
51588;SDS011;37671;53.258;6.460;2022-08-03T08:19:28;12.63;;;2.65;;
51588;SDS011;37671;53.258;6.460;2022-08-03T08:21:54;12.52;;;2.67;;
51588;SDS011;37671;53.258;6.460;2022-08-03T08:24:19;12.18;;;3.22;;
51588;SDS011;37671;53.258;6.460;2022-08-03T08:26:45;9.65;;;2.38;;
51588;SDS011;37671;53.258;6.460;2022-08-03T08:29:11;10.02;;;2.78;;
51588;SDS011;37671;53.258;6.460;2022-08-03T08:31:36;12.40;;;2.20;;
51588;SDS011;37671;53.258;6.460;2022-08-03T08:34:02;11.25;;;2.55;;
51588;SDS011;37671;53.258;6.460;2022-08-03T08:36:33;9.77;;;2.38;;
51588;SDS011;37671;53.258;6.460;2022-08-03T08:38:59;8.55;;;2.35;;
51588;SDS011;37671;53.258;6.460;2022-08-03T08:41:26;9.82;;;2.63;;
51588;SDS011;37671;53.258;6.460;2022-08-03T08:43:52;12.70;;;3.10;;
51588;SDS011;37671;53.258;6.460;2022-08-03T08:46:18;10.52;;;2.67;;
51588;SDS011;37671;53.258;6.460;2022-08-03T08:48:44;10.02;;;2.45;;
51588;SDS011;37671;53.258;6.460;2022-08-03T08:51:12;9.80;;;2.28;;
51588;SDS011;37671;53.258;6.460;2022-08-03T08:53:39;8.30;;;2.90;;
51588;SDS011;37671;53.258;6.460;2022-08-03T08:56:07;13.00;;;3.38;;
51588;SDS011;37671;53.258;6.460;2022-08-03T08:58:41;10.55;;;3.15;;
51588;SDS011;37671;53.258;6.460;2022-08-03T09:01:11;10.48;;;2.92;;
51588;SDS011;37671;53.258;6.460;2022-08-03T09:03:37;9.35;;;2.70;;
51588;SDS011;37671;53.258;6.460;2022-08-03T09:06:02;10.32;;;3.08;;
51588;SDS011;37671;53.258;6.460;2022-08-03T09:08:29;11.35;;;2.70;;
51588;SDS011;37671;53.258;6.460;2022-08-03T09:10:55;11.80;;;3.22;;
51588;SDS011;37671;53.258;6.460;2022-08-03T09:13:21;10.05;;;2.80;;
51588;SDS011;37671;53.258;6.460;2022-08-03T09:15:47;14.35;;;2.80;;
51588;SDS011;37671;53.258;6.460;2022-08-03T09:18:20;9.48;;;2.85;;
51588;SDS011;37671;53.258;6.460;2022-08-03T09:20:54;8.75;;;2.75;;
51588;SDS011;37671;53.258;6.460;2022-08-03T09:23:43;11.07;;;2.92;;
51588;SDS011;37671;53.258;6.460;2022-08-03T09:26:10;8.63;;;2.42;;
51588;SDS011;37671;53.258;6.460;2022-08-03T09:28:36;11.43;;;2.83;;
51588;SDS011;37671;53.258;6.460;2022-08-03T09:31:02;10.25;;;2.92;;
51588;SDS011;37671;53.258;6.460;2022-08-03T09:33:28;9.75;;;2.80;;
51588;SDS011;37671;53.258;6.460;2022-08-03T09:35:55;12.02;;;2.92;;
51588;SDS011;37671;53.258;6.460;2022-08-03T09:38:21;12.98;;;3.10;;
51588;SDS011;37671;53.258;6.460;2022-08-03T09:40:50;11.98;;;3.30;;
51588;SDS011;37671;53.258;6.460;2022-08-03T09:43:15;12.50;;;3.17;;
51588;SDS011;37671;53.258;6.460;2022-08-03T09:45:41;11.68;;;3.22;;
51588;SDS011;37671;53.258;6.460;2022-08-03T09:50:53;13.20;;;3.67;;
51588;SDS011;37671;53.258;6.460;2022-08-03T09:53:27;14.20;;;3.30;;
51588;SDS011;37671;53.258;6.460;2022-08-03T09:58:25;11.30;;;4.13;;
51588;SDS011;37671;53.258;6.460;2022-08-03T10:00:53;11.30;;;3.60;;
51588;SDS011;37671;53.258;6.460;2022-08-03T10:03:23;11.68;;;3.42;;
51588;SDS011;37671;53.258;6.460;2022-08-03T10:05:49;12.18;;;3.65;;
51588;SDS011;37671;53.258;6.460;2022-08-03T10:08:16;10.52;;;3.53;;
51588;SDS011;37671;53.258;6.460;2022-08-03T10:10:44;13.45;;;3.50;;
51588;SDS011;37671;53.258;6.460;2022-08-03T10:13:12;9.77;;;3.03;;
51588;SDS011;37671;53.258;6.460;2022-08-03T10:15:39;13.10;;;3.70;;
51588;SDS011;37671;53.258;6.460;2022-08-03T10:18:05;11.27;;;3.60;;
51588;SDS011;37671;53.258;6.460;2022-08-03T10:20:33;16.02;;;3.60;;
51588;SDS011;37671;53.258;6.460;2022-08-03T10:23:02;12.27;;;3.75;;
51588;SDS011;37671;53.258;6.460;2022-08-03T10:25:30;11.38;;;4.10;;
51588;SDS011;37671;53.258;6.460;2022-08-03T10:27:57;12.50;;;3.35;;
51588;SDS011;37671;53.258;6.460;2022-08-03T10:30:30;12.65;;;4.13;;
51588;SDS011;37671;53.258;6.460;2022-08-03T10:35:23;15.23;;;3.60;;
51588;SDS011;37671;53.258;6.460;2022-08-03T10:38:00;11.27;;;3.40;;
51588;SDS011;37671;53.258;6.460;2022-08-03T10:40:31;12.80;;;3.92;;
51588;SDS011;37671;53.258;6.460;2022-08-03T10:43:06;12.13;;;3.53;;
51588;SDS011;37671;53.258;6.460;2022-08-03T10:45:35;14.18;;;3.70;;
51588;SDS011;37671;53.258;6.460;2022-08-03T10:48:06;10.82;;;3.55;;
51588;SDS011;37671;53.258;6.460;2022-08-03T10:50:32;13.20;;;3.42;;
51588;SDS011;37671;53.258;6.460;2022-08-03T10:53:03;16.95;;;3.97;;
51588;SDS011;37671;53.258;6.460;2022-08-03T10:55:36;12.10;;;3.10;;
51588;SDS011;37671;53.258;6.460;2022-08-03T11:01:06;13.73;;;4.18;;
51588;SDS011;37671;53.258;6.460;2022-08-03T11:03:34;10.90;;;3.65;;
51588;SDS011;37671;53.258;6.460;2022-08-03T11:06:20;12.23;;;3.75;;
51588;SDS011;37671;53.258;6.460;2022-08-03T11:08:49;12.13;;;4.43;;
51588;SDS011;37671;53.258;6.460;2022-08-03T11:11:38;17.58;;;4.45;;
51588;SDS011;37671;53.258;6.460;2022-08-03T11:14:06;16.55;;;4.88;;
51588;SDS011;37671;53.258;6.460;2022-08-03T11:16:34;17.27;;;4.63;;
51588;SDS011;37671;53.258;6.460;2022-08-03T11:19:08;12.73;;;4.35;;
51588;SDS011;37671;53.258;6.460;2022-08-03T11:29:53;16.15;;;5.13;;
51588;SDS011;37671;53.258;6.460;2022-08-03T11:35:12;15.15;;;4.93;;
51588;SDS011;37671;53.258;6.460;2022-08-03T11:46:05;16.98;;;4.05;;
51588;SDS011;37671;53.258;6.460;2022-08-03T11:48:42;19.83;;;4.88;;
51588;SDS011;37671;53.258;6.460;2022-08-03T11:53:44;14.63;;;4.32;;
51588;SDS011;37671;53.258;6.460;2022-08-03T11:56:11;15.00;;;4.25;;
51588;SDS011;37671;53.258;6.460;2022-08-03T11:58:44;16.33;;;4.30;;
51588;SDS011;37671;53.258;6.460;2022-08-03T12:01:14;14.20;;;3.92;;
51588;SDS011;37671;53.258;6.460;2022-08-03T12:03:42;20.65;;;4.70;;
51588;SDS011;37671;53.258;6.460;2022-08-03T12:06:09;14.00;;;4.03;;
51588;SDS011;37671;53.258;6.460;2022-08-03T12:08:35;13.15;;;4.05;;
51588;SDS011;37671;53.258;6.460;2022-08-03T12:11:02;16.58;;;4.20;;
51588;SDS011;37671;53.258;6.460;2022-08-03T12:13:36;15.73;;;4.07;;
51588;SDS011;37671;53.258;6.460;2022-08-03T12:16:06;10.85;;;3.83;;
51588;SDS011;37671;53.258;6.460;2022-08-03T12:18:32;18.13;;;4.38;;
51588;SDS011;37671;53.258;6.460;2022-08-03T12:21:05;15.23;;;4.65;;
51588;SDS011;37671;53.258;6.460;2022-08-03T12:23:32;21.85;;;4.75;;
51588;SDS011;37671;53.258;6.460;2022-08-03T12:26:02;15.35;;;4.53;;
51588;SDS011;37671;53.258;6.460;2022-08-03T12:28:31;18.00;;;4.25;;
51588;SDS011;37671;53.258;6.460;2022-08-03T12:31:04;16.45;;;4.03;;
51588;SDS011;37671;53.258;6.460;2022-08-03T12:33:31;16.77;;;4.18;;
51588;SDS011;37671;53.258;6.460;2022-08-03T12:36:17;14.30;;;4.18;;
51588;SDS011;37671;53.258;6.460;2022-08-03T12:38:43;16.30;;;5.03;;
51588;SDS011;37671;53.258;6.460;2022-08-03T12:41:37;17.58;;;4.43;;
51588;SDS011;37671;53.258;6.460;2022-08-03T12:44:04;15.25;;;4.63;;
51588;SDS011;37671;53.258;6.460;2022-08-03T12:46:41;20.23;;;4.43;;
51588;SDS011;37671;53.258;6.460;2022-08-03T12:49:08;16.50;;;4.22;;
51588;SDS011;37671;53.258;6.460;2022-08-03T12:51:42;16.67;;;5.18;;
51588;SDS011;37671;53.258;6.460;2022-08-03T12:54:25;17.67;;;4.45;;
51588;SDS011;37671;53.258;6.460;2022-08-03T12:59:29;16.77;;;4.13;;
51588;SDS011;37671;53.258;6.460;2022-08-03T13:01:56;12.73;;;3.60;;
51588;SDS011;37671;53.258;6.460;2022-08-03T13:04:32;13.45;;;4.35;;
51588;SDS011;37671;53.258;6.460;2022-08-03T13:07:03;18.58;;;4.05;;
51588;SDS011;37671;53.258;6.460;2022-08-03T13:09:39;15.68;;;4.20;;
51588;SDS011;37671;53.258;6.460;2022-08-03T13:12:20;15.98;;;3.72;;
51588;SDS011;37671;53.258;6.460;2022-08-03T13:14:51;14.13;;;3.78;;
51588;SDS011;37671;53.258;6.460;2022-08-03T13:17:21;13.05;;;3.50;;
51588;SDS011;37671;53.258;6.460;2022-08-03T13:19:47;20.50;;;4.15;;
51588;SDS011;37671;53.258;6.460;2022-08-03T13:24:44;14.13;;;3.67;;
51588;SDS011;37671;53.258;6.460;2022-08-03T13:27:11;14.77;;;3.92;;
51588;SDS011;37671;53.258;6.460;2022-08-03T13:29:37;15.77;;;4.03;;
51588;SDS011;37671;53.258;6.460;2022-08-03T13:32:03;21.10;;;4.43;;
51588;SDS011;37671;53.258;6.460;2022-08-03T13:34:29;18.92;;;4.25;;
51588;SDS011;37671;53.258;6.460;2022-08-03T13:36:55;16.73;;;3.53;;
51588;SDS011;37671;53.258;6.460;2022-08-03T13:39:21;16.48;;;4.00;;
51588;SDS011;37671;53.258;6.460;2022-08-03T13:41:46;20.58;;;4.00;;
51588;SDS011;37671;53.258;6.460;2022-08-03T13:44:12;18.60;;;3.83;;
51588;SDS011;37671;53.258;6.460;2022-08-03T13:46:38;13.80;;;3.28;;
51588;SDS011;37671;53.258;6.460;2022-08-03T13:49:04;17.83;;;4.30;;
51588;SDS011;37671;53.258;6.460;2022-08-03T13:51:30;12.95;;;3.15;;
51588;SDS011;37671;53.258;6.460;2022-08-03T13:53:56;14.45;;;3.22;;
51588;SDS011;37671;53.258;6.460;2022-08-03T13:56:24;13.55;;;2.97;;
51588;SDS011;37671;53.258;6.460;2022-08-03T13:58:50;12.88;;;3.60;;
51588;SDS011;37671;53.258;6.460;2022-08-03T14:01:15;16.85;;;3.53;;
51588;SDS011;37671;53.258;6.460;2022-08-03T14:03:42;12.23;;;2.90;;
51588;SDS011;37671;53.258;6.460;2022-08-03T14:06:07;18.70;;;3.53;;
51588;SDS011;37671;53.258;6.460;2022-08-03T14:08:33;13.43;;;3.63;;
51588;SDS011;37671;53.258;6.460;2022-08-03T14:10:59;13.25;;;3.38;;
51588;SDS011;37671;53.258;6.460;2022-08-03T14:13:25;13.70;;;4.03;;
51588;SDS011;37671;53.258;6.460;2022-08-03T14:15:50;15.82;;;3.67;;
51588;SDS011;37671;53.258;6.460;2022-08-03T14:18:17;14.52;;;3.55;;
51588;SDS011;37671;53.258;6.460;2022-08-03T14:20:45;16.13;;;4.35;;
51588;SDS011;37671;53.258;6.460;2022-08-03T14:23:11;11.80;;;3.45;;
51588;SDS011;37671;53.258;6.460;2022-08-03T14:25:37;13.02;;;3.72;;
51588;SDS011;37671;53.258;6.460;2022-08-03T14:28:05;14.90;;;3.55;;
51588;SDS011;37671;53.258;6.460;2022-08-03T14:30:31;15.68;;;3.85;;
51588;SDS011;37671;53.258;6.460;2022-08-03T14:32:57;14.90;;;4.05;;
51588;SDS011;37671;53.258;6.460;2022-08-03T14:35:22;12.07;;;3.55;;
51588;SDS011;37671;53.258;6.460;2022-08-03T14:37:48;13.40;;;4.50;;
51588;SDS011;37671;53.258;6.460;2022-08-03T14:40:14;13.57;;;3.65;;
51588;SDS011;37671;53.258;6.460;2022-08-03T14:42:39;14.13;;;3.50;;
51588;SDS011;37671;53.258;6.460;2022-08-03T14:45:05;11.48;;;3.35;;
51588;SDS011;37671;53.258;6.460;2022-08-03T14:47:31;14.23;;;3.58;;
51588;SDS011;37671;53.258;6.460;2022-08-03T14:49:57;12.75;;;3.83;;
51588;SDS011;37671;53.258;6.460;2022-08-03T14:52:22;11.30;;;3.35;;
51588;SDS011;37671;53.258;6.460;2022-08-03T14:54:48;16.35;;;3.83;;
51588;SDS011;37671;53.258;6.460;2022-08-03T14:57:14;13.18;;;3.88;;
51588;SDS011;37671;53.258;6.460;2022-08-03T14:59:39;16.40;;;3.60;;
51588;SDS011;37671;53.258;6.460;2022-08-03T15:02:05;12.38;;;3.53;;
51588;SDS011;37671;53.258;6.460;2022-08-03T15:04:36;11.68;;;3.88;;
51588;SDS011;37671;53.258;6.460;2022-08-03T15:07:02;17.02;;;3.90;;
51588;SDS011;37671;53.258;6.460;2022-08-03T15:09:28;10.77;;;3.40;;
51588;SDS011;37671;53.258;6.460;2022-08-03T15:11:53;13.73;;;3.38;;
51588;SDS011;37671;53.258;6.460;2022-08-03T15:14:19;14.35;;;3.20;;
51588;SDS011;37671;53.258;6.460;2022-08-03T15:16:47;11.10;;;3.15;;
51588;SDS011;37671;53.258;6.460;2022-08-03T15:19:12;16.30;;;3.58;;
51588;SDS011;37671;53.258;6.460;2022-08-03T15:21:41;12.45;;;2.80;;
51588;SDS011;37671;53.258;6.460;2022-08-03T15:24:06;8.07;;;2.50;;
51588;SDS011;37671;53.258;6.460;2022-08-03T15:26:32;12.80;;;2.97;;
51588;SDS011;37671;53.258;6.460;2022-08-03T15:28:58;15.18;;;3.38;;
51588;SDS011;37671;53.258;6.460;2022-08-03T15:31:23;12.38;;;2.55;;
51588;SDS011;37671;53.258;6.460;2022-08-03T15:33:49;10.30;;;2.63;;
51588;SDS011;37671;53.258;6.460;2022-08-03T15:36:16;14.57;;;2.80;;
51588;SDS011;37671;53.258;6.460;2022-08-03T15:38:42;10.30;;;2.60;;
51588;SDS011;37671;53.258;6.460;2022-08-03T15:41:08;8.93;;;2.55;;
51588;SDS011;37671;53.258;6.460;2022-08-03T15:43:34;11.25;;;2.70;;
51588;SDS011;37671;53.258;6.460;2022-08-03T17:28:30;15.73;;;3.92;;
51588;SDS011;37671;53.258;6.460;2022-08-03T17:31:07;15.40;;;4.18;;
51588;SDS011;37671;53.258;6.460;2022-08-03T17:33:40;17.15;;;3.80;;
51588;SDS011;37671;53.258;6.460;2022-08-03T17:36:06;15.15;;;3.50;;
51588;SDS011;37671;53.258;6.460;2022-08-03T17:38:34;14.15;;;3.75;;
51588;SDS011;37671;53.258;6.460;2022-08-03T17:41:01;15.38;;;3.47;;
51588;SDS011;37671;53.258;6.460;2022-08-03T17:43:27;14.63;;;3.35;;
51588;SDS011;37671;53.258;6.460;2022-08-03T17:45:53;15.18;;;3.38;;
51588;SDS011;37671;53.258;6.460;2022-08-03T17:48:19;13.52;;;3.75;;
51588;SDS011;37671;53.258;6.460;2022-08-03T17:50:49;14.48;;;3.88;;
51588;SDS011;37671;53.258;6.460;2022-08-03T17:53:27;12.38;;;3.28;;
51588;SDS011;37671;53.258;6.460;2022-08-03T17:58:30;20.33;;;3.88;;
51588;SDS011;37671;53.258;6.460;2022-08-03T18:00:58;19.35;;;4.28;;
51588;SDS011;37671;53.258;6.460;2022-08-03T18:03:50;15.90;;;4.00;;
51588;SDS011;37671;53.258;6.460;2022-08-03T18:06:21;12.98;;;3.38;;
51588;SDS011;37671;53.258;6.460;2022-08-03T18:08:50;14.20;;;2.97;;
51588;SDS011;37671;53.258;6.460;2022-08-03T18:11:20;14.70;;;3.60;;
51588;SDS011;37671;53.258;6.460;2022-08-03T18:13:59;12.75;;;2.92;;
51588;SDS011;37671;53.258;6.460;2022-08-03T18:16:35;13.43;;;3.38;;
51588;SDS011;37671;53.258;6.460;2022-08-03T18:19:02;18.33;;;3.85;;
51588;SDS011;37671;53.258;6.460;2022-08-03T18:21:30;14.90;;;3.55;;
51588;SDS011;37671;53.258;6.460;2022-08-03T18:23:56;14.38;;;3.40;;
51588;SDS011;37671;53.258;6.460;2022-08-03T18:26:22;13.15;;;2.97;;
51588;SDS011;37671;53.258;6.460;2022-08-03T18:28:52;14.48;;;3.75;;
51588;SDS011;37671;53.258;6.460;2022-08-03T18:31:19;16.00;;;3.40;;
51588;SDS011;37671;53.258;6.460;2022-08-03T18:33:46;15.55;;;3.97;;
51588;SDS011;37671;53.258;6.460;2022-08-03T18:36:13;17.17;;;3.30;;
51588;SDS011;37671;53.258;6.460;2022-08-03T18:38:42;16.73;;;3.30;;
51588;SDS011;37671;53.258;6.460;2022-08-03T18:41:13;12.32;;;3.60;;
51588;SDS011;37671;53.258;6.460;2022-08-03T18:43:42;14.27;;;3.65;;
51588;SDS011;37671;53.258;6.460;2022-08-03T18:46:25;16.08;;;4.18;;
51588;SDS011;37671;53.258;6.460;2022-08-03T18:49:19;10.68;;;3.67;;
51588;SDS011;37671;53.258;6.460;2022-08-03T18:52:15;12.95;;;3.67;;
51588;SDS011;37671;53.258;6.460;2022-08-03T18:57:13;18.85;;;4.95;;
51588;SDS011;37671;53.258;6.460;2022-08-03T19:02:34;16.90;;;4.32;;
51588;SDS011;37671;53.258;6.460;2022-08-03T19:05:12;18.70;;;5.45;;
51588;SDS011;37671;53.258;6.460;2022-08-03T19:07:47;18.23;;;4.97;;
51588;SDS011;37671;53.258;6.460;2022-08-03T19:10:19;16.35;;;4.65;;
51588;SDS011;37671;53.258;6.460;2022-08-03T19:12:52;19.55;;;5.05;;
51588;SDS011;37671;53.258;6.460;2022-08-03T19:15:20;20.05;;;4.90;;
51588;SDS011;37671;53.258;6.460;2022-08-03T19:17:47;15.20;;;5.43;;
51588;SDS011;37671;53.258;6.460;2022-08-03T19:20:15;22.15;;;5.50;;
51588;SDS011;37671;53.258;6.460;2022-08-03T19:22:55;17.90;;;5.07;;
51588;SDS011;37671;53.258;6.460;2022-08-03T19:25:23;17.05;;;4.82;;
51588;SDS011;37671;53.258;6.460;2022-08-03T19:27:51;14.05;;;4.57;;
51588;SDS011;37671;53.258;6.460;2022-08-03T19:30:19;17.95;;;5.35;;
51588;SDS011;37671;53.258;6.460;2022-08-03T19:33:01;19.63;;;5.35;;
51588;SDS011;37671;53.258;6.460;2022-08-03T19:35:27;20.08;;;5.40;;
51588;SDS011;37671;53.258;6.460;2022-08-03T19:37:54;15.48;;;4.88;;
51588;SDS011;37671;53.258;6.460;2022-08-03T19:40:20;21.20;;;5.55;;
51588;SDS011;37671;53.258;6.460;2022-08-03T19:42:52;18.23;;;5.07;;
51588;SDS011;37671;53.258;6.460;2022-08-03T19:45:26;16.98;;;5.05;;
51588;SDS011;37671;53.258;6.460;2022-08-03T19:48:06;17.40;;;5.22;;
51588;SDS011;37671;53.258;6.460;2022-08-03T19:50:34;16.92;;;5.65;;
51588;SDS011;37671;53.258;6.460;2022-08-03T19:53:04;18.90;;;6.13;;
51588;SDS011;37671;53.258;6.460;2022-08-03T19:55:33;19.15;;;5.57;;
51588;SDS011;37671;53.258;6.460;2022-08-03T19:58:01;17.15;;;5.22;;
51588;SDS011;37671;53.258;6.460;2022-08-03T20:00:35;18.05;;;5.30;;
51588;SDS011;37671;53.258;6.460;2022-08-03T20:03:04;18.75;;;5.90;;
51588;SDS011;37671;53.258;6.460;2022-08-03T20:05:34;15.50;;;5.57;;
51588;SDS011;37671;53.258;6.460;2022-08-03T20:08:00;19.58;;;6.03;;
51588;SDS011;37671;53.258;6.460;2022-08-03T20:10:28;22.83;;;6.25;;
51588;SDS011;37671;53.258;6.460;2022-08-03T20:12:58;16.10;;;6.18;;
51588;SDS011;37671;53.258;6.460;2022-08-03T20:15:24;17.92;;;5.85;;
51588;SDS011;37671;53.258;6.460;2022-08-03T20:17:51;21.05;;;7.03;;
51588;SDS011;37671;53.258;6.460;2022-08-03T20:20:18;16.10;;;6.88;;
51588;SDS011;37671;53.258;6.460;2022-08-03T20:22:46;19.50;;;6.60;;
51588;SDS011;37671;53.258;6.460;2022-08-03T20:25:16;21.27;;;6.60;;
51588;SDS011;37671;53.258;6.460;2022-08-03T20:27:50;19.85;;;6.40;;
51588;SDS011;37671;53.258;6.460;2022-08-03T20:30:21;15.03;;;5.80;;
51588;SDS011;37671;53.258;6.460;2022-08-03T20:32:47;15.85;;;5.78;;
51588;SDS011;37671;53.258;6.460;2022-08-03T20:35:12;15.25;;;5.85;;
51588;SDS011;37671;53.258;6.460;2022-08-03T20:37:38;17.13;;;5.65;;
51588;SDS011;37671;53.258;6.460;2022-08-03T20:40:04;15.25;;;5.30;;
51588;SDS011;37671;53.258;6.460;2022-08-03T20:42:30;18.33;;;5.82;;
51588;SDS011;37671;53.258;6.460;2022-08-03T20:44:56;21.50;;;6.05;;
51588;SDS011;37671;53.258;6.460;2022-08-03T20:47:22;19.75;;;5.88;;
51588;SDS011;37671;53.258;6.460;2022-08-03T20:49:48;17.08;;;5.57;;
51588;SDS011;37671;53.258;6.460;2022-08-03T20:52:14;18.23;;;5.25;;
51588;SDS011;37671;53.258;6.460;2022-08-03T20:54:40;15.27;;;5.70;;
51588;SDS011;37671;53.258;6.460;2022-08-03T20:57:06;17.00;;;6.05;;
51588;SDS011;37671;53.258;6.460;2022-08-03T20:59:35;17.75;;;5.50;;
51588;SDS011;37671;53.258;6.460;2022-08-03T21:02:07;18.38;;;5.28;;
51588;SDS011;37671;53.258;6.460;2022-08-03T21:04:33;15.18;;;5.32;;
51588;SDS011;37671;53.258;6.460;2022-08-03T21:07:02;14.77;;;4.95;;
51588;SDS011;37671;53.258;6.460;2022-08-03T21:09:30;13.77;;;4.70;;
51588;SDS011;37671;53.258;6.460;2022-08-03T21:12:03;16.17;;;4.75;;
51588;SDS011;37671;53.258;6.460;2022-08-03T21:14:42;11.77;;;4.60;;
51588;SDS011;37671;53.258;6.460;2022-08-03T21:17:21;13.55;;;4.75;;
51588;SDS011;37671;53.258;6.460;2022-08-03T21:19:48;13.50;;;4.55;;
51588;SDS011;37671;53.258;6.460;2022-08-03T21:22:15;11.80;;;4.43;;
51588;SDS011;37671;53.258;6.460;2022-08-03T21:24:46;11.45;;;4.43;;
51588;SDS011;37671;53.258;6.460;2022-08-03T21:27:12;14.35;;;4.78;;
51588;SDS011;37671;53.258;6.460;2022-08-03T21:29:38;14.95;;;4.78;;
51588;SDS011;37671;53.258;6.460;2022-08-03T21:32:05;15.23;;;3.85;;
51588;SDS011;37671;53.258;6.460;2022-08-03T21:34:34;13.45;;;3.78;;
51588;SDS011;37671;53.258;6.460;2022-08-03T21:37:00;9.35;;;3.72;;
51588;SDS011;37671;53.258;6.460;2022-08-03T21:39:26;12.48;;;4.00;;
51588;SDS011;37671;53.258;6.460;2022-08-03T21:41:53;13.07;;;3.50;;
51588;SDS011;37671;53.258;6.460;2022-08-03T21:44:19;10.85;;;3.95;;
51588;SDS011;37671;53.258;6.460;2022-08-03T21:46:45;11.18;;;3.20;;
51588;SDS011;37671;53.258;6.460;2022-08-03T21:49:13;12.95;;;3.63;;
51588;SDS011;37671;53.258;6.460;2022-08-03T21:51:39;10.23;;;3.25;;
51588;SDS011;37671;53.258;6.460;2022-08-03T21:54:06;14.40;;;4.10;;
51588;SDS011;37671;53.258;6.460;2022-08-03T21:56:39;13.07;;;3.72;;
51588;SDS011;37671;53.258;6.460;2022-08-03T21:59:06;9.32;;;3.03;;
51588;SDS011;37671;53.258;6.460;2022-08-03T22:01:35;12.35;;;3.13;;
51588;SDS011;37671;53.258;6.460;2022-08-03T22:04:05;11.15;;;3.35;;
51588;SDS011;37671;53.258;6.460;2022-08-03T22:06:32;7.53;;;3.03;;
51588;SDS011;37671;53.258;6.460;2022-08-03T22:08:59;9.63;;;3.40;;
51588;SDS011;37671;53.258;6.460;2022-08-03T22:11:25;9.05;;;2.97;;